createdAt,value
2023-02-24T00:02:03.264Z,96736.00
2023-02-24T00:07:05.038Z,96725.00
2023-02-24T00:12:10.411Z,96728.00
2023-02-24T00:17:15.367Z,96726.00
2023-02-24T00:22:16.219Z,96716.00
2023-02-24T00:27:17.009Z,96707.00
2023-02-24T00:32:17.912Z,96708.00
2023-02-24T00:37:23.110Z,96693.00
2023-02-24T00:42:24.028Z,96698.00
2023-02-24T00:47:24.785Z,96711.00
2023-02-24T00:52:26.981Z,96703.00
2023-02-24T00:57:27.795Z,96706.00
2023-02-24T01:02:28.597Z,96694.00
2023-02-24T01:07:29.337Z,96696.00
2023-02-24T01:12:49.009Z,96693.00
2023-02-24T01:17:50.005Z,96677.00
2023-02-24T01:22:52.586Z,96672.00
2023-02-24T01:27:53.347Z,96675.00
2023-02-24T01:32:54.386Z,96668.00
2023-02-24T01:37:55.256Z,96665.00
2023-02-24T01:42:56.059Z,96665.00
2023-02-24T01:48:02.162Z,96656.00
2023-02-24T01:53:06.525Z,96643.00
2023-02-24T01:58:12.714Z,96641.00
2023-02-24T02:03:32.677Z,96629.00
2023-02-24T02:08:35.825Z,96619.00
2023-02-24T02:13:39.181Z,96618.00
2023-02-24T02:18:56.709Z,96621.00
2023-02-24T02:24:41.771Z,96603.00
2023-02-24T02:31:50.080Z,96597.00
2023-02-24T02:37:05.035Z,96612.00
2023-02-24T02:43:52.217Z,96607.00
2023-02-24T02:48:58.620Z,96602.00
2023-02-24T02:54:07.259Z,96587.00
2023-02-24T02:59:11.944Z,96589.00
2023-02-24T03:04:16.881Z,96589.00
2023-02-24T03:09:31.661Z,96582.00
2023-02-24T03:14:39.186Z,96585.00
2023-02-24T03:19:42.982Z,96580.00
2023-02-24T03:24:45.237Z,96574.00
2023-02-24T03:30:00.127Z,96570.00
2023-02-24T03:35:23.844Z,96560.00
2023-02-24T03:40:33.338Z,96559.00
2023-02-24T03:45:37.319Z,96554.00
2023-02-24T03:50:40.022Z,96555.00
2023-02-24T03:57:01.662Z,96550.00
2023-02-24T04:02:13.491Z,96550.00
2023-02-24T04:07:40.539Z,96544.00
2023-02-24T04:12:49.816Z,96532.00
2023-02-24T04:17:57.719Z,96526.00
2023-02-24T04:23:08.049Z,96520.00
2023-02-24T04:28:10.780Z,96515.00
2023-02-24T04:33:13.584Z,96512.00
2023-02-24T04:38:15.729Z,96501.00
2023-02-24T04:43:17.208Z,96495.00
2023-02-24T04:48:19.556Z,96492.00
2023-02-24T04:53:26.287Z,96492.00
2023-02-24T04:58:27.244Z,96475.00
2023-02-24T05:03:29.185Z,96469.00
2023-02-24T05:08:30.151Z,96463.00
2023-02-24T05:13:31.917Z,96460.00
2023-02-24T05:18:39.384Z,96450.00
2023-02-24T05:23:43.538Z,96452.00
2023-02-24T05:28:48.332Z,96440.00
2023-02-24T05:33:56.762Z,96434.00
2023-02-24T05:38:57.744Z,96440.00
2023-02-24T05:44:01.565Z,96425.00
2023-02-24T05:49:10.723Z,96431.00
2023-02-24T05:54:13.229Z,96424.00
2023-02-24T05:59:20.647Z,96409.00
2023-02-24T06:04:38.306Z,96419.00
2023-02-24T06:09:44.085Z,96416.00
2023-02-24T06:14:45.072Z,96421.00
2023-02-24T06:19:49.688Z,96406.00
2023-02-24T06:24:53.309Z,96407.00
2023-02-24T06:29:55.856Z,96408.00
2023-02-24T06:34:56.676Z,96399.00
2023-02-24T06:40:00.074Z,96404.00
2023-02-24T06:45:01.398Z,96403.00
2023-02-24T06:50:06.004Z,96400.00
2023-02-24T06:55:24.415Z,96403.00
2023-02-24T07:00:36.301Z,96418.00
2023-02-24T07:05:37.053Z,96406.00
2023-02-24T07:10:38.321Z,96418.00
2023-02-24T07:15:39.097Z,96408.00
2023-02-24T07:20:43.268Z,96407.00
2023-02-24T07:25:45.505Z,96407.00
2023-02-24T07:30:46.471Z,96411.00
2023-02-24T07:35:51.496Z,96401.00
2023-02-24T07:40:57.422Z,96388.00
2023-02-24T07:46:11.958Z,96393.00
2023-02-24T07:51:15.918Z,96387.00
2023-02-24T07:56:19.499Z,96383.00
2023-02-24T08:01:23.412Z,96384.00
2023-02-24T08:06:26.420Z,96376.00
2023-02-24T08:11:34.848Z,96377.00
2023-02-24T08:16:44.846Z,96371.00
2023-02-24T08:21:52.349Z,96361.00
2023-02-24T08:27:04.696Z,96359.00
2023-02-24T08:32:10.311Z,96361.00
2023-02-24T08:37:14.881Z,96359.00
2023-02-24T08:42:15.672Z,96353.00
2023-02-24T08:47:20.334Z,96344.00
2023-02-24T08:52:21.103Z,96347.00
2023-02-24T08:57:25.237Z,96345.00
2023-02-24T09:02:28.631Z,96335.00
2023-02-24T09:07:34.562Z,96331.00
2023-02-24T09:12:40.370Z,96323.00
2023-02-24T09:17:49.090Z,96320.00
2023-02-24T09:23:07.088Z,96316.00
2023-02-24T09:28:26.698Z,96311.00
2023-02-24T09:33:40.712Z,96297.00
2023-02-24T09:42:17.848Z,96300.00
2023-02-24T09:47:53.500Z,96294.00
2023-02-24T09:53:16.531Z,96286.00
2023-02-24T10:00:32.977Z,96284.00
2023-02-24T10:05:49.342Z,96272.00
2023-02-24T10:11:06.251Z,96266.00
2023-02-24T10:16:12.263Z,96262.00
2023-02-24T10:21:48.679Z,96247.00
2023-02-24T10:27:07.247Z,96248.00
2023-02-24T10:32:46.355Z,96243.00
2023-02-24T10:37:48.418Z,96242.00
2023-02-24T10:42:49.229Z,96224.00
2023-02-24T10:47:57.214Z,96216.00
2023-02-24T10:53:15.180Z,96216.00
2023-02-24T10:58:37.253Z,96201.00
2023-02-24T11:04:22.001Z,96185.00
2023-02-24T11:09:43.031Z,96185.00
2023-02-24T11:15:24.765Z,96183.00
2023-02-24T11:20:49.451Z,96168.00
2023-02-24T11:25:57.438Z,96158.00
2023-02-24T11:34:16.738Z,96138.00
2023-02-24T11:39:41.359Z,96132.00
2023-02-24T11:45:10.505Z,96122.00
2023-02-24T11:51:45.386Z,96112.00
2023-02-24T11:56:49.368Z,96110.00
2023-02-24T12:01:58.406Z,96091.00
2023-02-24T12:08:38.608Z,96085.00
2023-02-24T12:13:47.889Z,96073.00
2023-02-24T12:18:59.949Z,96062.00
2023-02-24T12:24:07.312Z,96055.00
2023-02-24T12:29:41.755Z,96051.00
2023-02-24T12:38:08.649Z,96044.00
2023-02-24T12:44:01.627Z,96027.00
2023-02-24T12:49:22.317Z,96011.00
2023-02-24T12:56:20.636Z,96004.00
2023-02-24T13:01:32.454Z,95994.00
2023-02-24T13:07:03.575Z,95989.00
2023-02-24T13:13:58.826Z,95980.00
2023-02-24T13:19:32.992Z,95987.00
2023-02-24T13:24:34.950Z,95977.00
2023-02-24T13:29:47.339Z,95969.00
2023-02-24T13:34:50.955Z,95966.00
2023-02-24T13:39:51.826Z,95973.00
2023-02-24T13:45:41.068Z,95952.00
2023-02-24T13:52:49.854Z,95959.00
2023-02-24T13:58:05.213Z,95946.00
2023-02-24T14:03:19.561Z,95935.00
2023-02-24T14:08:26.912Z,95944.00
2023-02-24T14:13:33.196Z,95930.00
2023-02-24T14:18:35.822Z,95929.00
2023-02-24T14:23:36.928Z,95927.00
2023-02-24T14:28:39.348Z,95905.00
2023-02-24T14:33:42.889Z,95899.00
2023-02-24T14:38:44.413Z,95894.00
2023-02-24T14:43:45.482Z,95888.00
2023-02-24T14:48:52.601Z,95885.00
2023-02-24T14:53:56.200Z,95892.00
2023-02-24T14:59:23.506Z,95888.00
2023-02-24T15:04:36.592Z,95881.00
2023-02-24T15:09:42.088Z,95881.00
2023-02-24T15:14:52.448Z,95865.00
2023-02-24T15:19:56.682Z,95861.00
2023-02-24T15:25:42.128Z,95846.00
2023-02-24T15:31:17.185Z,95849.00
2023-02-24T15:36:24.299Z,95846.00
2023-02-24T15:41:40.917Z,95839.00
2023-02-24T15:46:41.704Z,95841.00
2023-02-24T15:51:44.828Z,95836.00
2023-02-24T15:56:47.814Z,95836.00
2023-02-24T16:01:51.149Z,95829.00
2023-02-24T16:06:54.058Z,95824.00
2023-02-24T16:11:55.719Z,95815.00
2023-02-24T16:16:57.492Z,95813.00
2023-02-24T16:21:58.265Z,95817.00
2023-02-24T16:26:59.182Z,95805.00
2023-02-24T16:32:00.571Z,95801.00
2023-02-24T16:37:01.487Z,95802.00
2023-02-24T16:42:06.602Z,95806.00
2023-02-24T16:47:12.003Z,95810.00
2023-02-24T16:52:13.496Z,95814.00
2023-02-24T16:57:14.620Z,95817.00
2023-02-24T17:02:20.944Z,95826.00
2023-02-24T17:07:21.704Z,95821.00
2023-02-24T17:12:22.521Z,95833.00
2023-02-24T17:17:23.638Z,95825.00
2023-02-24T17:22:24.681Z,95829.00
2023-02-24T17:27:25.467Z,95822.00
2023-02-24T17:32:26.663Z,95831.00
2023-02-24T17:37:27.648Z,95818.00
2023-02-24T17:42:28.500Z,95818.00
2023-02-24T17:47:29.824Z,95822.00
2023-02-24T17:52:31.495Z,95822.00
2023-02-24T17:57:35.789Z,95824.00
2023-02-24T18:02:36.892Z,95829.00
2023-02-24T18:07:37.938Z,95837.00
2023-02-24T18:12:38.791Z,95831.00
2023-02-24T18:17:39.570Z,95834.00
2023-02-24T18:22:40.352Z,95839.00
2023-02-24T18:27:41.186Z,95829.00
2023-02-24T18:32:44.022Z,95837.00
2023-02-24T18:37:44.985Z,95838.00
2023-02-24T18:42:48.647Z,95841.00
2023-02-24T18:47:50.996Z,95842.00
2023-02-24T18:52:51.730Z,95837.00
2023-02-24T18:57:52.477Z,95846.00
2023-02-24T19:02:53.418Z,95844.00
2023-02-24T19:07:54.460Z,95839.00
2023-02-24T19:12:55.284Z,95835.00
2023-02-24T19:17:56.104Z,95826.00
2023-02-24T19:22:56.880Z,95820.00
2023-02-24T19:27:57.647Z,95821.00
2023-02-24T19:32:58.642Z,95817.00
2023-02-24T19:37:59.551Z,95812.00
2023-02-24T19:43:00.956Z,95814.00
2023-02-24T19:48:01.779Z,95820.00
2023-02-24T19:53:02.588Z,95813.00
2023-02-24T19:58:03.997Z,95819.00
2023-02-24T20:03:04.811Z,95827.00
2023-02-24T20:08:05.888Z,95825.00
2023-02-24T20:13:06.748Z,95823.00
2023-02-24T20:18:08.014Z,95829.00
2023-02-24T20:23:08.822Z,95832.00
2023-02-24T20:28:09.613Z,95831.00
2023-02-24T20:33:10.484Z,95835.00
2023-02-24T20:38:11.285Z,95835.00
2023-02-24T20:43:12.087Z,95837.00
2023-02-24T20:48:13.252Z,95837.00
2023-02-24T20:53:14.250Z,95842.00
2023-02-24T20:58:14.996Z,95851.00
2023-02-24T21:03:16.924Z,95839.00
2023-02-24T21:08:17.648Z,95829.00
2023-02-24T21:13:20.372Z,95825.00
2023-02-24T21:18:22.184Z,95823.00
2023-02-24T21:23:23.443Z,95819.00
2023-02-24T21:28:25.258Z,95809.00
2023-02-24T21:33:26.714Z,95804.00
2023-02-24T21:38:27.489Z,95808.00
2023-02-24T21:43:28.458Z,95817.00
2023-02-24T21:48:29.648Z,95831.00
2023-02-24T21:53:34.441Z,95837.00
2023-02-24T21:58:35.687Z,95845.00
2023-02-24T22:03:36.912Z,95847.00
2023-02-24T22:08:42.355Z,95860.00
2023-02-24T22:13:44.877Z,95861.00
2023-02-24T22:18:47.187Z,95864.00
2023-02-24T22:23:53.148Z,95871.00
2023-02-24T22:28:54.395Z,95877.00
2023-02-24T22:33:55.735Z,95885.00
2023-02-24T22:38:58.426Z,95889.00
2023-02-24T22:44:01.914Z,95893.00
2023-02-24T22:49:03.741Z,95898.00
2023-02-24T22:54:05.515Z,95912.00
2023-02-24T22:59:06.297Z,95912.00
2023-02-24T23:04:11.893Z,95923.00
2023-02-24T23:09:16.931Z,95930.00
2023-02-24T23:14:18.148Z,95933.00
2023-02-24T23:19:19.037Z,95929.00
2023-02-24T23:24:21.191Z,95930.00
2023-02-24T23:29:23.297Z,95928.00
2023-02-24T23:34:24.564Z,95926.00
2023-02-24T23:39:25.353Z,95931.00
2023-02-24T23:44:26.169Z,95944.00
2023-02-24T23:49:39.088Z,95939.00
2023-02-24T23:54:52.085Z,95937.00
2023-02-24T23:59:53.074Z,95957.00
